<?xml version="1.0" encoding="UTF-8" standalone="no" ?>
<gpx xmlns="http://www.topografix.com/GPX/1/1" xmlns:xsi="http://www.w3.org/2001/XMLSchema-instance" xsi:schemaLocation="http://www.topografix.com/GPX/1/1 http://www.topografix.com/GPX/1/1/gpx.xsd" version="1.1" creator="VisuGPX - https://www.visugpx.com">
  <metadata>
    <name>Rouge 18Km Parc</name>
  </metadata>
  <trk>
    <name><![CDATA[parcours rouge 18 km rando du 21/09/2025-21827640]]></name>
    <extensions>
      <line xmlns="http://www.topografix.com/GPX/gpx_style/0/2">
        <color>0000FF</color>
        <width>4</width>
      </line>
    </extensions>
    <trkseg>
      <trkpt lat="46.17152" lon="4.80243">
        <ele>175</ele>
        <time>2025-07-06T07:10:54Z</time>
      </trkpt>
      <trkpt lat="46.17157" lon="4.80272">
        <ele>175</ele>
        <time>2025-07-06T07:10:27Z</time>
      </trkpt>
      <trkpt lat="46.17166" lon="4.80306">
        <ele>174</ele>
        <time>2025-07-06T07:09:53Z</time>
      </trkpt>
      <trkpt lat="46.17158" lon="4.80331">
        <ele>173</ele>
        <time>2025-07-06T07:09:28Z</time>
      </trkpt>
      <trkpt lat="46.17172" lon="4.80351">
        <ele>173</ele>
        <time>2025-07-06T07:09:01Z</time>
      </trkpt>
      <trkpt lat="46.172" lon="4.80435">
        <ele>174</ele>
        <time>2025-07-06T07:07:35Z</time>
      </trkpt>
      <trkpt lat="46.17173" lon="4.80462">
        <ele>174</ele>
        <time>2025-07-06T07:06:51Z</time>
      </trkpt>
      <trkpt lat="46.17177" lon="4.80552">
        <ele>175</ele>
        <time>2025-07-06T07:05:28Z</time>
      </trkpt>
      <trkpt lat="46.17195" lon="4.80633">
        <ele>175</ele>
        <time>2025-07-06T07:04:09Z</time>
      </trkpt>
      <trkpt lat="46.17185" lon="4.80638">
        <ele>175</ele>
        <time>2025-07-06T07:03:55Z</time>
      </trkpt>
      <trkpt lat="46.17242" lon="4.80941">
        <ele>172</ele>
        <time>2025-07-06T06:59:05Z</time>
      </trkpt>
      <trkpt lat="46.17262" lon="4.81253">
        <ele>174</ele>
        <time>2025-07-06T06:54:16Z</time>
      </trkpt>
      <trkpt lat="46.17304" lon="4.81322">
        <ele>175</ele>
        <time>2025-07-06T06:52:51Z</time>
      </trkpt>
      <trkpt lat="46.17337" lon="4.81345">
        <ele>176</ele>
        <time>2025-07-06T06:52:02Z</time>
      </trkpt>
      <trkpt lat="46.17436" lon="4.81372">
        <ele>173</ele>
        <time>2025-07-06T06:49:47Z</time>
      </trkpt>
      <trkpt lat="46.17451" lon="4.81383">
        <ele>174</ele>
        <time>2025-07-06T06:49:25Z</time>
      </trkpt>
      <trkpt lat="46.17461" lon="4.81376">
        <ele>174</ele>
        <time>2025-07-06T06:49:10Z</time>
      </trkpt>
      <trkpt lat="46.17478" lon="4.8141">
        <ele>174</ele>
        <time>2025-07-06T06:48:31Z</time>
      </trkpt>
      <trkpt lat="46.17508" lon="4.81436">
        <ele>174</ele>
        <time>2025-07-06T06:47:45Z</time>
      </trkpt>
      <trkpt lat="46.17731" lon="4.81488">
        <ele>177</ele>
        <time>2025-07-06T06:42:43Z</time>
      </trkpt>
      <trkpt lat="46.1776" lon="4.81617">
        <ele>177</ele>
        <time>2025-07-06T06:40:38Z</time>
      </trkpt>
      <trkpt lat="46.17787" lon="4.81627">
        <ele>176</ele>
        <time>2025-07-06T06:40:01Z</time>
      </trkpt>
      <trkpt lat="46.17808" lon="4.81654">
        <ele>176</ele>
        <time>2025-07-06T06:39:23Z</time>
      </trkpt>
      <trkpt lat="46.17827" lon="4.81685">
        <ele>176</ele>
        <time>2025-07-06T06:38:45Z</time>
      </trkpt>
      <trkpt lat="46.17931" lon="4.81722">
        <ele>177</ele>
        <time>2025-07-06T06:36:22Z</time>
      </trkpt>
      <trkpt lat="46.17917" lon="4.81835">
        <ele>177</ele>
        <time>2025-07-06T06:34:36Z</time>
      </trkpt>
      <trkpt lat="46.17934" lon="4.81838">
        <ele>177</ele>
        <time>2025-07-06T06:34:13Z</time>
      </trkpt>
      <trkpt lat="46.17928" lon="4.81939">
        <ele>176</ele>
        <time>2025-07-06T06:32:39Z</time>
      </trkpt>
      <trkpt lat="46.1789" lon="4.81954">
        <ele>176</ele>
        <time>2025-07-06T06:31:47Z</time>
      </trkpt>
      <trkpt lat="46.17837" lon="4.81892">
        <ele>177</ele>
        <time>2025-07-06T06:30:16Z</time>
      </trkpt>
      <trkpt lat="46.17848" lon="4.82124">
        <ele>177</ele>
        <time>2025-07-06T06:26:41Z</time>
      </trkpt>
      <trkpt lat="46.17895" lon="4.82403">
        <ele>177</ele>
        <time>2025-07-06T06:22:16Z</time>
      </trkpt>
      <trkpt lat="46.17963" lon="4.82765">
        <ele>178</ele>
        <time>2025-07-06T06:16:29Z</time>
      </trkpt>
      <trkpt lat="46.18021" lon="4.82876">
        <ele>178</ele>
        <time>2025-07-06T06:14:21Z</time>
      </trkpt>
      <trkpt lat="46.18012" lon="4.82941">
        <ele>178</ele>
        <time>2025-07-06T06:13:19Z</time>
      </trkpt>
      <trkpt lat="46.17994" lon="4.82987">
        <ele>179</ele>
        <time>2025-07-06T06:12:31Z</time>
      </trkpt>
      <trkpt lat="46.17968" lon="4.83013">
        <ele>180</ele>
        <time>2025-07-06T06:11:48Z</time>
      </trkpt>
      <trkpt lat="46.18008" lon="4.83122">
        <ele>184</ele>
        <time>2025-07-06T06:09:54Z</time>
      </trkpt>
      <trkpt lat="46.18015" lon="4.83235">
        <ele>186</ele>
        <time>2025-07-06T06:08:10Z</time>
      </trkpt>
      <trkpt lat="46.18066" lon="4.83479">
        <ele>193</ele>
        <time>2025-07-06T06:04:14Z</time>
      </trkpt>
      <trkpt lat="46.17881" lon="4.8347">
        <ele>189</ele>
        <time>2025-07-06T06:00:07Z</time>
      </trkpt>
      <trkpt lat="46.17747" lon="4.83416">
        <ele>185</ele>
        <time>2025-07-06T05:57:01Z</time>
      </trkpt>
      <trkpt lat="46.17777" lon="4.8362">
        <ele>192</ele>
        <time>2025-07-06T05:53:49Z</time>
      </trkpt>
      <trkpt lat="46.17788" lon="4.83793">
        <ele>193</ele>
        <time>2025-07-06T05:51:08Z</time>
      </trkpt>
      <trkpt lat="46.17791" lon="4.8385">
        <ele>193</ele>
        <time>2025-07-06T05:50:15Z</time>
      </trkpt>
      <trkpt lat="46.17786" lon="4.83894">
        <ele>194</ele>
        <time>2025-07-06T05:49:34Z</time>
      </trkpt>
      <trkpt lat="46.17787" lon="4.84073">
        <ele>195</ele>
        <time>2025-07-06T05:46:49Z</time>
      </trkpt>
      <trkpt lat="46.17746" lon="4.84212">
        <ele>195</ele>
        <time>2025-07-06T05:44:29Z</time>
      </trkpt>
      <trkpt lat="46.17787" lon="4.84298">
        <ele>196</ele>
        <time>2025-07-06T05:42:53Z</time>
      </trkpt>
      <trkpt lat="46.17729" lon="4.84387">
        <ele>199</ele>
        <time>2025-07-06T05:41:00Z</time>
      </trkpt>
      <trkpt lat="46.17693" lon="4.84482">
        <ele>200</ele>
        <time>2025-07-06T05:39:20Z</time>
      </trkpt>
      <trkpt lat="46.1761" lon="4.84685">
        <ele>205</ele>
        <time>2025-07-06T05:35:42Z</time>
      </trkpt>
      <trkpt lat="46.17612" lon="4.84719">
        <ele>208</ele>
        <time>2025-07-06T05:35:10Z</time>
      </trkpt>
      <trkpt lat="46.1763" lon="4.84777">
        <ele>213</ele>
        <time>2025-07-06T05:34:12Z</time>
      </trkpt>
      <trkpt lat="46.17632" lon="4.84843">
        <ele>216</ele>
        <time>2025-07-06T05:33:10Z</time>
      </trkpt>
      <trkpt lat="46.17564" lon="4.84834">
        <ele>214</ele>
        <time>2025-07-06T05:31:39Z</time>
      </trkpt>
      <trkpt lat="46.17514" lon="4.84816">
        <ele>211</ele>
        <time>2025-07-06T05:30:31Z</time>
      </trkpt>
      <trkpt lat="46.17411" lon="4.84819">
        <ele>205</ele>
        <time>2025-07-06T05:28:13Z</time>
      </trkpt>
      <trkpt lat="46.17389" lon="4.84807">
        <ele>205</ele>
        <time>2025-07-06T05:27:42Z</time>
      </trkpt>
      <trkpt lat="46.17383" lon="4.84774">
        <ele>204</ele>
        <time>2025-07-06T05:27:10Z</time>
      </trkpt>
      <trkpt lat="46.17378" lon="4.84631">
        <ele>202</ele>
        <time>2025-07-06T05:24:58Z</time>
      </trkpt>
      <trkpt lat="46.17297" lon="4.84409">
        <ele>204</ele>
        <time>2025-07-06T05:21:06Z</time>
      </trkpt>
      <trkpt lat="46.17349" lon="4.84405">
        <ele>206</ele>
        <time>2025-07-06T05:19:57Z</time>
      </trkpt>
      <trkpt lat="46.17396" lon="4.84374">
        <ele>207</ele>
        <time>2025-07-06T05:18:48Z</time>
      </trkpt>
      <trkpt lat="46.17506" lon="4.84241">
        <ele>207</ele>
        <time>2025-07-06T05:15:36Z</time>
      </trkpt>
      <trkpt lat="46.17547" lon="4.84121">
        <ele>205</ele>
        <time>2025-07-06T05:13:32Z</time>
      </trkpt>
      <trkpt lat="46.17553" lon="4.84024">
        <ele>205</ele>
        <time>2025-07-06T05:12:02Z</time>
      </trkpt>
      <trkpt lat="46.17545" lon="4.83855">
        <ele>201</ele>
        <time>2025-07-06T05:09:26Z</time>
      </trkpt>
      <trkpt lat="46.17552" lon="4.83812">
        <ele>200</ele>
        <time>2025-07-06T05:08:45Z</time>
      </trkpt>
      <trkpt lat="46.17593" lon="4.83652">
        <ele>195</ele>
        <time>2025-07-06T05:06:07Z</time>
      </trkpt>
      <trkpt lat="46.17648" lon="4.83532">
        <ele>190</ele>
        <time>2025-07-06T05:03:55Z</time>
      </trkpt>
      <trkpt lat="46.17669" lon="4.83449">
        <ele>187</ele>
        <time>2025-07-06T05:02:33Z</time>
      </trkpt>
      <trkpt lat="46.17675" lon="4.83382">
        <ele>185</ele>
        <time>2025-07-06T05:01:30Z</time>
      </trkpt>
      <trkpt lat="46.17569" lon="4.83332">
        <ele>183</ele>
        <time>2025-07-06T04:59:02Z</time>
      </trkpt>
      <trkpt lat="46.17444" lon="4.83329">
        <ele>182</ele>
        <time>2025-07-06T04:56:15Z</time>
      </trkpt>
      <trkpt lat="46.17342" lon="4.83349">
        <ele>180</ele>
        <time>2025-07-06T04:53:57Z</time>
      </trkpt>
      <trkpt lat="46.17182" lon="4.83412">
        <ele>179</ele>
        <time>2025-07-06T04:50:16Z</time>
      </trkpt>
      <trkpt lat="46.17153" lon="4.83458">
        <ele>180</ele>
        <time>2025-07-06T04:49:19Z</time>
      </trkpt>
      <trkpt lat="46.17017" lon="4.83479">
        <ele>182</ele>
        <time>2025-07-06T04:46:16Z</time>
      </trkpt>
      <trkpt lat="46.16952" lon="4.8351">
        <ele>182</ele>
        <time>2025-07-06T04:44:45Z</time>
      </trkpt>
      <trkpt lat="46.16903" lon="4.83504">
        <ele>182</ele>
        <time>2025-07-06T04:43:39Z</time>
      </trkpt>
      <trkpt lat="46.1683" lon="4.83379">
        <ele>182</ele>
        <time>2025-07-06T04:41:08Z</time>
      </trkpt>
      <trkpt lat="46.16769" lon="4.8325">
        <ele>180</ele>
        <time>2025-07-06T04:38:44Z</time>
      </trkpt>
      <trkpt lat="46.16692" lon="4.8314">
        <ele>180</ele>
        <time>2025-07-06T04:36:19Z</time>
      </trkpt>
      <trkpt lat="46.16594" lon="4.83006">
        <ele>180</ele>
        <time>2025-07-06T04:33:19Z</time>
      </trkpt>
      <trkpt lat="46.1647" lon="4.83137">
        <ele>182</ele>
        <time>2025-07-06T04:29:54Z</time>
      </trkpt>
      <trkpt lat="46.16405" lon="4.83127">
        <ele>183</ele>
        <time>2025-07-06T04:28:27Z</time>
      </trkpt>
      <trkpt lat="46.16368" lon="4.83162">
        <ele>183</ele>
        <time>2025-07-06T04:27:28Z</time>
      </trkpt>
      <trkpt lat="46.16328" lon="4.83122">
        <ele>185</ele>
        <time>2025-07-06T04:26:23Z</time>
      </trkpt>
      <trkpt lat="46.16303" lon="4.83003">
        <ele>189</ele>
        <time>2025-07-06T04:24:28Z</time>
      </trkpt>
      <trkpt lat="46.16306" lon="4.82974">
        <ele>190</ele>
        <time>2025-07-06T04:24:01Z</time>
      </trkpt>
      <trkpt lat="46.1634" lon="4.829">
        <ele>191</ele>
        <time>2025-07-06T04:22:39Z</time>
      </trkpt>
      <trkpt lat="46.16307" lon="4.82845">
        <ele>193</ele>
        <time>2025-07-06T04:21:31Z</time>
      </trkpt>
      <trkpt lat="46.16259" lon="4.8281">
        <ele>196</ele>
        <time>2025-07-06T04:20:20Z</time>
      </trkpt>
      <trkpt lat="46.16227" lon="4.82804">
        <ele>197</ele>
        <time>2025-07-06T04:19:37Z</time>
      </trkpt>
      <trkpt lat="46.1615" lon="4.828">
        <ele>199</ele>
        <time>2025-07-06T04:17:54Z</time>
      </trkpt>
      <trkpt lat="46.16111" lon="4.82812">
        <ele>200</ele>
        <time>2025-07-06T04:17:01Z</time>
      </trkpt>
      <trkpt lat="46.16093" lon="4.82787">
        <ele>201</ele>
        <time>2025-07-06T04:16:27Z</time>
      </trkpt>
      <trkpt lat="46.16077" lon="4.8282">
        <ele>200</ele>
        <time>2025-07-06T04:15:50Z</time>
      </trkpt>
      <trkpt lat="46.16055" lon="4.82834">
        <ele>200</ele>
        <time>2025-07-06T04:15:18Z</time>
      </trkpt>
      <trkpt lat="46.15927" lon="4.82839">
        <ele>203</ele>
        <time>2025-07-06T04:12:27Z</time>
      </trkpt>
      <trkpt lat="46.15816" lon="4.82892">
        <ele>204</ele>
        <time>2025-07-06T04:09:51Z</time>
      </trkpt>
      <trkpt lat="46.158" lon="4.8307">
        <ele>208</ele>
        <time>2025-07-06T04:07:05Z</time>
      </trkpt>
      <trkpt lat="46.15786" lon="4.83204">
        <ele>209</ele>
        <time>2025-07-06T04:05:00Z</time>
      </trkpt>
      <trkpt lat="46.15758" lon="4.83387">
        <ele>205</ele>
        <time>2025-07-06T04:02:07Z</time>
      </trkpt>
      <trkpt lat="46.15712" lon="4.83529">
        <ele>205</ele>
        <time>2025-07-06T03:59:42Z</time>
      </trkpt>
      <trkpt lat="46.1553" lon="4.83234">
        <ele>213</ele>
        <time>2025-07-06T03:53:37Z</time>
      </trkpt>
      <trkpt lat="46.1551" lon="4.829">
        <ele>213</ele>
        <time>2025-07-06T03:48:27Z</time>
      </trkpt>
      <trkpt lat="46.15527" lon="4.82693">
        <ele>214</ele>
        <time>2025-07-06T03:45:14Z</time>
      </trkpt>
      <trkpt lat="46.15437" lon="4.82661">
        <ele>216</ele>
        <time>2025-07-06T03:43:10Z</time>
      </trkpt>
      <trkpt lat="46.15455" lon="4.82565">
        <ele>215</ele>
        <time>2025-07-06T03:41:38Z</time>
      </trkpt>
      <trkpt lat="46.15452" lon="4.82476">
        <ele>212</ele>
        <time>2025-07-06T03:40:16Z</time>
      </trkpt>
      <trkpt lat="46.1545" lon="4.82413">
        <ele>210</ele>
        <time>2025-07-06T03:39:18Z</time>
      </trkpt>
      <trkpt lat="46.15424" lon="4.82335">
        <ele>209</ele>
        <time>2025-07-06T03:37:58Z</time>
      </trkpt>
      <trkpt lat="46.1541" lon="4.82237">
        <ele>205</ele>
        <time>2025-07-06T03:36:25Z</time>
      </trkpt>
      <trkpt lat="46.15437" lon="4.82176">
        <ele>201</ele>
        <time>2025-07-06T03:35:18Z</time>
      </trkpt>
      <trkpt lat="46.15493" lon="4.82104">
        <ele>195</ele>
        <time>2025-07-06T03:33:38Z</time>
      </trkpt>
      <trkpt lat="46.15563" lon="4.81972">
        <ele>193</ele>
        <time>2025-07-06T03:31:04Z</time>
      </trkpt>
      <trkpt lat="46.15573" lon="4.81631">
        <ele>179</ele>
        <time>2025-07-06T03:25:49Z</time>
      </trkpt>
      <trkpt lat="46.15588" lon="4.81403">
        <ele>174</ele>
        <time>2025-07-06T03:22:17Z</time>
      </trkpt>
      <trkpt lat="46.15561" lon="4.81171">
        <ele>170</ele>
        <time>2025-07-06T03:18:40Z</time>
      </trkpt>
      <trkpt lat="46.15565" lon="4.80983">
        <ele>169</ele>
        <time>2025-07-06T03:15:46Z</time>
      </trkpt>
      <trkpt lat="46.15567" lon="4.80758">
        <ele>168</ele>
        <time>2025-07-06T03:12:18Z</time>
      </trkpt>
      <trkpt lat="46.1557" lon="4.805">
        <ele>171</ele>
        <time>2025-07-06T03:08:19Z</time>
      </trkpt>
      <trkpt lat="46.15715" lon="4.80457">
        <ele>169</ele>
        <time>2025-07-06T03:05:02Z</time>
      </trkpt>
      <trkpt lat="46.15785" lon="4.80438">
        <ele>170</ele>
        <time>2025-07-06T03:03:27Z</time>
      </trkpt>
      <trkpt lat="46.15872" lon="4.80364">
        <ele>171</ele>
        <time>2025-07-06T03:01:12Z</time>
      </trkpt>
      <trkpt lat="46.15952" lon="4.80271">
        <ele>169</ele>
        <time>2025-07-06T02:58:55Z</time>
      </trkpt>
      <trkpt lat="46.16038" lon="4.80135">
        <ele>169</ele>
        <time>2025-07-06T02:56:05Z</time>
      </trkpt>
      <trkpt lat="46.16084" lon="4.80069">
        <ele>168</ele>
        <time>2025-07-06T02:54:38Z</time>
      </trkpt>
      <trkpt lat="46.1614" lon="4.79967">
        <ele>168</ele>
        <time>2025-07-06T02:52:38Z</time>
      </trkpt>
      <trkpt lat="46.16205" lon="4.79859">
        <ele>169</ele>
        <time>2025-07-06T02:50:26Z</time>
      </trkpt>
      <trkpt lat="46.16332" lon="4.79615">
        <ele>169</ele>
        <time>2025-07-06T02:45:44Z</time>
      </trkpt>
      <trkpt lat="46.16352" lon="4.79529">
        <ele>168</ele>
        <time>2025-07-06T02:44:20Z</time>
      </trkpt>
      <trkpt lat="46.16425" lon="4.79391">
        <ele>169</ele>
        <time>2025-07-06T02:41:39Z</time>
      </trkpt>
      <trkpt lat="46.16512" lon="4.7922">
        <ele>170</ele>
        <time>2025-07-06T02:38:23Z</time>
      </trkpt>
      <trkpt lat="46.16513" lon="4.79148">
        <ele>171</ele>
        <time>2025-07-06T02:37:17Z</time>
      </trkpt>
      <trkpt lat="46.16535" lon="4.7908">
        <ele>171</ele>
        <time>2025-07-06T02:36:07Z</time>
      </trkpt>
      <trkpt lat="46.16543" lon="4.79056">
        <ele>170</ele>
        <time>2025-07-06T02:35:43Z</time>
      </trkpt>
      <trkpt lat="46.16568" lon="4.79028">
        <ele>169</ele>
        <time>2025-07-06T02:35:00Z</time>
      </trkpt>
      <trkpt lat="46.16572" lon="4.79006">
        <ele>168</ele>
        <time>2025-07-06T02:34:39Z</time>
      </trkpt>
      <trkpt lat="46.16716" lon="4.78729">
        <ele>168</ele>
        <time>2025-07-06T02:29:19Z</time>
      </trkpt>
      <trkpt lat="46.16827" lon="4.78608">
        <ele>170</ele>
        <time>2025-07-06T02:26:14Z</time>
      </trkpt>
      <trkpt lat="46.16864" lon="4.78592">
        <ele>171</ele>
        <time>2025-07-06T02:25:22Z</time>
      </trkpt>
      <trkpt lat="46.16965" lon="4.78518">
        <ele>169</ele>
        <time>2025-07-06T02:22:51Z</time>
      </trkpt>
      <trkpt lat="46.17165" lon="4.784">
        <ele>168</ele>
        <time>2025-07-06T02:18:03Z</time>
      </trkpt>
      <trkpt lat="46.17311" lon="4.78321">
        <ele>169</ele>
        <time>2025-07-06T02:14:35Z</time>
      </trkpt>
      <trkpt lat="46.17509" lon="4.78264">
        <ele>168</ele>
        <time>2025-07-06T02:10:05Z</time>
      </trkpt>
      <trkpt lat="46.17781" lon="4.78225">
        <ele>167</ele>
        <time>2025-07-06T02:04:00Z</time>
      </trkpt>
      <trkpt lat="46.18284" lon="4.78199">
        <ele>170</ele>
        <time>2025-07-06T01:52:49Z</time>
      </trkpt>
      <trkpt lat="46.18258" lon="4.78425">
        <ele>167</ele>
        <time>2025-07-06T01:49:17Z</time>
      </trkpt>
      <trkpt lat="46.18233" lon="4.78658">
        <ele>172</ele>
        <time>2025-07-06T01:45:39Z</time>
      </trkpt>
      <trkpt lat="46.1809" lon="4.78708">
        <ele>172</ele>
        <time>2025-07-06T01:42:23Z</time>
      </trkpt>
      <trkpt lat="46.17926" lon="4.78703">
        <ele>169</ele>
        <time>2025-07-06T01:38:44Z</time>
      </trkpt>
      <trkpt lat="46.1777" lon="4.78711">
        <ele>170</ele>
        <time>2025-07-06T01:35:16Z</time>
      </trkpt>
      <trkpt lat="46.17736" lon="4.78724">
        <ele>170</ele>
        <time>2025-07-06T01:34:29Z</time>
      </trkpt>
      <trkpt lat="46.17572" lon="4.78846">
        <ele>168</ele>
        <time>2025-07-06T01:30:23Z</time>
      </trkpt>
      <trkpt lat="46.17532" lon="4.78931">
        <ele>168</ele>
        <time>2025-07-06T01:28:48Z</time>
      </trkpt>
      <trkpt lat="46.17489" lon="4.79004">
        <ele>168</ele>
        <time>2025-07-06T01:27:19Z</time>
      </trkpt>
      <trkpt lat="46.17392" lon="4.79132">
        <ele>168</ele>
        <time>2025-07-06T01:24:24Z</time>
      </trkpt>
      <trkpt lat="46.17315" lon="4.79236">
        <ele>167</ele>
        <time>2025-07-06T01:22:03Z</time>
      </trkpt>
      <trkpt lat="46.17227" lon="4.7928">
        <ele>169</ele>
        <time>2025-07-06T01:19:59Z</time>
      </trkpt>
      <trkpt lat="46.1724" lon="4.79405">
        <ele>169</ele>
        <time>2025-07-06T01:18:02Z</time>
      </trkpt>
      <trkpt lat="46.1726" lon="4.79464">
        <ele>169</ele>
        <time>2025-07-06T01:17:01Z</time>
      </trkpt>
      <trkpt lat="46.1733" lon="4.79635">
        <ele>172</ele>
        <time>2025-07-06T01:13:58Z</time>
      </trkpt>
      <trkpt lat="46.17352" lon="4.79812">
        <ele>172</ele>
        <time>2025-07-06T01:11:12Z</time>
      </trkpt>
      <trkpt lat="46.17262" lon="4.79903">
        <ele>174</ele>
        <time>2025-07-06T01:08:45Z</time>
      </trkpt>
      <trkpt lat="46.17192" lon="4.79935">
        <ele>173</ele>
        <time>2025-07-06T01:07:07Z</time>
      </trkpt>
      <trkpt lat="46.17137" lon="4.79935">
        <ele>174</ele>
        <time>2025-07-06T01:05:54Z</time>
      </trkpt>
      <trkpt lat="46.17084" lon="4.79967">
        <ele>173</ele>
        <time>2025-07-06T01:04:37Z</time>
      </trkpt>
      <trkpt lat="46.1713" lon="4.80144">
        <ele>174</ele>
        <time>2025-07-06T01:01:42Z</time>
      </trkpt>
      <trkpt lat="46.17151" lon="4.80231">
        <ele>175</ele>
        <time>2025-07-06T01:00:17Z</time>
      </trkpt>
    </trkseg>
  </trk>
</gpx>